createdAt,value
2018-07-16T00:00:45.132Z,57.13
2018-07-16T00:03:14.674Z,56.67
2018-07-16T00:05:44.042Z,57.27
2018-07-16T00:08:13.426Z,56.80
2018-07-16T00:10:42.792Z,56.83
2018-07-16T00:13:12.155Z,57.55
2018-07-16T00:15:41.593Z,57.82
2018-07-16T00:18:11.629Z,57.54
2018-07-16T00:20:41.089Z,57.25
2018-07-16T00:23:10.488Z,57.78
2018-07-16T00:25:39.895Z,57.66
2018-07-16T00:28:09.265Z,57.86
2018-07-16T00:30:39.242Z,57.94
2018-07-16T00:33:08.863Z,57.95
2018-07-16T00:35:38.005Z,57.88
2018-07-16T00:38:08.355Z,58.33
2018-07-16T00:40:37.699Z,57.79
2018-07-16T00:43:07.371Z,58.16
2018-07-16T00:45:36.800Z,58.21
2018-07-16T00:48:06.564Z,58.11
2018-07-16T00:50:35.961Z,58.44
2018-07-16T00:53:05.396Z,58.52
2018-07-16T00:55:34.818Z,58.23
2018-07-16T00:58:04.203Z,58.71
2018-07-16T01:00:33.611Z,58.97
2018-07-16T01:03:03.082Z,58.50
2018-07-16T01:05:32.447Z,58.86
2018-07-16T01:08:02.241Z,58.92
2018-07-16T01:10:31.636Z,58.35
2018-07-16T01:13:01.124Z,59.01
2018-07-16T01:15:31.256Z,59.18
2018-07-16T01:18:00.668Z,58.90
2018-07-16T01:20:30.008Z,58.69
2018-07-16T01:22:59.481Z,58.27
2018-07-16T01:25:29.210Z,58.23
2018-07-16T01:27:58.602Z,58.30
2018-07-16T01:30:28.521Z,58.34
2018-07-16T01:32:57.885Z,58.46
2018-07-16T01:35:27.323Z,58.94
2018-07-16T01:37:57.390Z,58.91
2018-07-16T01:40:27.212Z,59.71
2018-07-16T01:42:56.696Z,59.75
2018-07-16T01:45:26.312Z,60.55
2018-07-16T01:47:55.644Z,61.01
2018-07-16T01:50:26.769Z,60.40
2018-07-16T01:52:56.276Z,60.76
2018-07-16T01:55:25.689Z,60.38
2018-07-16T01:59:25.607Z,60.22
2018-07-16T02:01:55.265Z,59.92
2018-07-16T02:04:24.674Z,60.07
2018-07-16T02:06:54.063Z,60.23
2018-07-16T02:09:23.413Z,59.69
2018-07-16T02:11:52.772Z,59.32
2018-07-16T02:14:23.689Z,58.65
2018-07-16T02:16:53.115Z,58.45
2018-07-16T02:19:22.656Z,58.86
2018-07-16T02:21:52.094Z,58.61
2018-07-16T02:24:21.728Z,59.40
2018-07-16T02:26:51.195Z,59.86
2018-07-16T02:29:21.775Z,60.58
2018-07-16T02:31:51.588Z,61.21
2018-07-16T02:34:20.954Z,61.05
2018-07-16T02:36:50.377Z,61.57
2018-07-16T02:39:19.761Z,60.79
2018-07-16T02:41:49.142Z,61.26
2018-07-16T02:44:18.896Z,60.88
2018-07-16T02:46:48.644Z,61.01
2018-07-16T02:49:18.167Z,61.71
2018-07-16T02:51:47.529Z,61.57
2018-07-16T02:54:17.574Z,61.89
2018-07-16T02:56:46.964Z,62.03
2018-07-16T02:59:16.366Z,61.24
2018-07-16T03:01:46.101Z,61.42
2018-07-16T03:04:15.500Z,61.78
2018-07-16T03:06:45.320Z,61.07
2018-07-16T03:09:14.726Z,60.68
2018-07-16T03:11:44.106Z,60.86
2018-07-16T03:14:13.484Z,60.57
2018-07-16T03:16:42.874Z,61.16
2018-07-16T03:19:12.329Z,60.96
2018-07-16T03:21:42.029Z,60.77
2018-07-16T03:24:11.484Z,60.86
2018-07-16T03:26:40.874Z,60.27
2018-07-16T03:29:10.925Z,60.08
2018-07-16T03:31:40.282Z,60.77
2018-07-16T03:34:10.289Z,60.62
2018-07-16T03:36:39.896Z,61.20
2018-07-16T03:39:09.957Z,61.27
2018-07-16T03:41:39.306Z,60.80
2018-07-16T03:44:09.921Z,60.29
2018-07-16T03:46:39.260Z,60.28
2018-07-16T03:49:09.181Z,60.19
2018-07-16T03:51:38.596Z,59.55
2018-07-16T03:54:07.940Z,59.24
2018-07-16T03:56:37.911Z,58.99
2018-07-16T03:59:07.632Z,59.24
2018-07-16T04:01:37.101Z,59.05
2018-07-16T04:04:07.218Z,58.92
2018-07-16T04:06:37.574Z,58.10
2018-07-16T04:09:07.661Z,58.41
2018-07-16T04:11:37.381Z,58.88
2018-07-16T04:14:06.820Z,58.51
2018-07-16T04:16:36.722Z,58.59
2018-07-16T04:19:06.107Z,58.65
2018-07-16T04:21:35.701Z,58.36
2018-07-16T04:24:05.037Z,57.85
2018-07-16T04:26:34.380Z,57.90
2018-07-16T04:29:04.040Z,57.78
2018-07-16T04:31:34.117Z,57.79
2018-07-16T04:34:03.565Z,58.41
2018-07-16T04:36:32.944Z,58.08
2018-07-16T04:39:03.495Z,58.73
2018-07-16T04:41:32.856Z,58.11
2018-07-16T04:44:02.324Z,58.01
2018-07-16T04:46:31.685Z,57.88
2018-07-16T04:49:01.036Z,57.25
2018-07-16T04:51:30.904Z,57.58
2018-07-16T04:54:00.238Z,57.80
2018-07-16T04:56:29.628Z,57.41
2018-07-16T04:58:59.000Z,57.78
2018-07-16T05:01:28.374Z,57.72
2018-07-16T05:03:57.697Z,57.55
2018-07-16T05:06:27.638Z,57.47
2018-07-16T05:08:57.008Z,57.43
2018-07-16T05:11:26.396Z,57.47
2018-07-16T05:13:55.728Z,57.22
2018-07-16T05:16:25.988Z,56.88
2018-07-16T05:18:55.502Z,56.54
2018-07-16T05:21:24.830Z,56.53
2018-07-16T05:23:54.184Z,56.12
2018-07-16T05:26:23.580Z,56.54
2018-07-16T05:28:54.728Z,55.80
2018-07-16T05:31:24.102Z,56.39
2018-07-16T05:33:54.341Z,55.85
2018-07-16T05:36:23.888Z,55.57
2018-07-16T05:38:54.169Z,55.43
2018-07-16T05:41:23.608Z,54.96
2018-07-16T05:43:53.579Z,55.15
2018-07-16T05:46:23.343Z,55.20
2018-07-16T05:48:54.742Z,55.01
2018-07-16T05:51:24.114Z,54.98
2018-07-16T05:53:53.487Z,55.37
2018-07-16T05:56:22.842Z,54.79
2018-07-16T05:58:53.516Z,54.71
2018-07-16T06:01:22.913Z,54.60
2018-07-16T06:03:52.317Z,55.19
2018-07-16T06:06:21.777Z,54.40
2018-07-16T06:08:51.374Z,54.53
2018-07-16T06:11:21.009Z,54.13
2018-07-16T06:13:53.632Z,54.00
2018-07-16T06:16:23.550Z,54.55
2018-07-16T06:18:52.936Z,54.45
2018-07-16T06:21:22.900Z,54.43
2018-07-16T06:23:52.315Z,54.24
2018-07-16T06:26:22.449Z,54.79
2018-07-16T06:28:51.928Z,54.27
2018-07-16T06:31:21.352Z,53.51
2018-07-16T06:33:51.571Z,54.83
2018-07-16T06:36:21.729Z,53.51
2018-07-16T06:38:51.149Z,53.77
2018-07-16T06:41:20.778Z,53.57
2018-07-16T06:43:50.153Z,52.96
2018-07-16T06:46:19.827Z,53.05
2018-07-16T06:48:49.237Z,53.43
2018-07-16T06:51:18.945Z,53.25
2018-07-16T06:53:48.891Z,52.33
2018-07-16T06:56:18.281Z,51.53
2018-07-16T06:58:47.665Z,51.17
2018-07-16T07:01:17.128Z,51.28
2018-07-16T07:03:46.968Z,50.86
2018-07-16T07:06:16.309Z,49.28
2018-07-16T07:08:45.734Z,49.05
2018-07-16T07:11:15.084Z,48.98
2018-07-16T07:13:45.100Z,49.97
2018-07-16T07:16:14.445Z,50.43
2018-07-16T07:18:43.784Z,50.76
2018-07-16T07:21:14.496Z,51.12
2018-07-16T07:23:44.082Z,50.54
2018-07-16T07:26:13.733Z,49.97
2018-07-16T07:28:44.798Z,49.83
2018-07-16T07:31:14.191Z,49.59
2018-07-16T07:33:43.558Z,50.47
2018-07-16T07:36:13.001Z,49.66
2018-07-16T07:38:42.725Z,49.51
2018-07-16T07:41:12.070Z,49.74
2018-07-16T07:43:41.479Z,49.46
2018-07-16T07:46:10.928Z,49.16
2018-07-16T07:48:40.298Z,49.35
2018-07-16T07:51:09.694Z,49.58
2018-07-16T07:53:39.067Z,49.46
2018-07-16T07:56:08.485Z,49.17
2018-07-16T07:58:37.852Z,49.27
2018-07-16T08:01:07.725Z,48.90
2018-07-16T08:03:37.112Z,48.27
2018-07-16T08:06:07.980Z,48.29
2018-07-16T08:08:38.174Z,48.56
2018-07-16T08:11:07.647Z,48.38
2018-07-16T08:13:37.870Z,48.19
2018-07-16T08:16:07.496Z,47.66
2018-07-16T08:18:37.107Z,48.22
2018-07-16T08:21:07.072Z,47.60
2018-07-16T08:23:36.338Z,47.76
2018-07-16T08:26:06.174Z,48.40
2018-07-16T08:28:35.757Z,48.19
2018-07-16T08:31:05.601Z,47.74
2018-07-16T08:33:35.225Z,46.29
2018-07-16T08:36:04.811Z,47.59
2018-07-16T08:38:34.976Z,48.27
2018-07-16T08:41:04.535Z,49.01
2018-07-16T08:43:38.080Z,49.07
2018-07-16T08:46:08.520Z,48.70
2018-07-16T08:48:38.041Z,49.07
2018-07-16T08:51:07.909Z,49.10
2018-07-16T08:53:37.335Z,49.21
2018-07-16T08:56:06.917Z,49.87
2018-07-16T08:58:36.293Z,49.63
2018-07-16T09:01:05.657Z,50.19
2018-07-16T09:06:05.390Z,51.68
2018-07-16T09:08:36.538Z,51.07
2018-07-16T09:11:07.083Z,50.80
2018-07-16T09:13:36.880Z,51.35
2018-07-16T09:16:06.519Z,50.91
2018-07-16T09:18:35.937Z,50.52
2018-07-16T09:21:06.039Z,50.49
2018-07-16T09:23:35.455Z,49.32
2018-07-16T09:26:04.995Z,49.41
2018-07-16T09:28:34.434Z,50.37
2018-07-16T09:31:05.597Z,50.29
2018-07-16T09:33:36.449Z,50.54
2018-07-16T09:36:05.969Z,50.04
2018-07-16T09:38:35.389Z,50.53
2018-07-16T09:41:04.802Z,50.70
2018-07-16T09:43:34.247Z,49.79
2018-07-16T09:46:03.608Z,49.26
2018-07-16T09:48:32.965Z,49.79
2018-07-16T09:51:02.966Z,49.02
2018-07-16T09:53:32.348Z,50.09
2018-07-16T09:56:01.783Z,50.69
2018-07-16T09:58:31.385Z,50.14
2018-07-16T10:03:11.570Z,50.92
2018-07-16T10:05:41.476Z,51.86
2018-07-16T10:08:10.919Z,52.16
2018-07-16T10:13:29.927Z,51.03
2018-07-16T10:16:00.259Z,50.71
2018-07-16T10:18:30.590Z,51.36
2018-07-16T10:21:00.752Z,51.36
2018-07-16T10:23:30.101Z,52.39
2018-07-16T10:26:00.436Z,53.43
2018-07-16T10:28:30.120Z,54.02
2018-07-16T10:33:27.713Z,53.46
2018-07-16T10:35:57.136Z,53.09
2018-07-16T10:38:26.513Z,52.28
2018-07-16T10:40:55.909Z,52.23
2018-07-16T10:43:25.240Z,53.83
2018-07-16T10:45:54.605Z,52.88
2018-07-16T10:48:24.044Z,52.62
2018-07-16T10:50:53.468Z,52.97
2018-07-16T10:53:22.837Z,52.05
2018-07-16T10:55:52.197Z,51.75
2018-07-16T10:58:21.596Z,50.62
2018-07-16T11:00:50.981Z,51.01
2018-07-16T11:03:20.360Z,51.29
2018-07-16T11:05:49.795Z,51.20
2018-07-16T11:08:19.162Z,49.93
2018-07-16T11:10:49.078Z,49.49
2018-07-16T11:13:18.486Z,49.76
2018-07-16T11:15:48.335Z,49.42
2018-07-16T11:18:17.729Z,49.00
2018-07-16T11:20:47.892Z,49.16
2018-07-16T11:23:18.046Z,48.77
2018-07-16T11:25:52.727Z,48.42
2018-07-16T11:28:22.543Z,48.47
2018-07-16T11:30:52.408Z,48.07
2018-07-16T11:33:22.196Z,49.01
2018-07-16T11:35:51.673Z,49.21
2018-07-16T11:38:22.783Z,48.82
2018-07-16T11:40:52.495Z,47.90
2018-07-16T11:43:22.057Z,48.65
2018-07-16T11:45:51.651Z,47.95
2018-07-16T11:48:21.034Z,48.98
2018-07-16T11:50:50.457Z,48.77
2018-07-16T11:53:19.878Z,48.41
2018-07-16T11:55:49.848Z,48.13
2018-07-16T11:58:19.241Z,48.11
2018-07-16T12:00:48.721Z,48.81
2018-07-16T12:03:18.136Z,48.24
2018-07-16T12:05:47.712Z,48.31
2018-07-16T12:08:17.316Z,47.37
2018-07-16T12:10:46.676Z,45.90
2018-07-16T12:13:16.032Z,46.72
2018-07-16T12:15:45.388Z,44.03
2018-07-16T12:18:15.446Z,43.72
2018-07-16T12:20:44.792Z,43.68
2018-07-16T12:23:14.140Z,42.42
2018-07-16T12:25:43.508Z,42.36
2018-07-16T12:28:12.857Z,42.07
2018-07-16T12:30:42.270Z,41.73
2018-07-16T12:33:11.615Z,42.13
2018-07-16T12:35:40.968Z,40.59
2018-07-16T12:38:10.337Z,41.16
2018-07-16T12:40:40.472Z,41.17
2018-07-16T12:43:10.477Z,41.44
2018-07-16T12:45:39.903Z,42.04
2018-07-16T12:48:09.306Z,42.15
2018-07-16T12:50:38.922Z,41.66
2018-07-16T12:53:08.285Z,40.83
2018-07-16T12:55:37.718Z,40.99
2018-07-16T12:58:07.934Z,40.63
2018-07-16T13:00:37.308Z,39.82
2018-07-16T13:03:06.710Z,40.11
2018-07-16T13:05:36.068Z,39.74
2018-07-16T13:08:05.447Z,40.26
2018-07-16T13:10:34.785Z,38.19
2018-07-16T13:13:04.640Z,38.08
2018-07-16T13:15:34.021Z,38.02
2018-07-16T13:18:03.460Z,37.50
2018-07-16T13:20:32.869Z,36.60
2018-07-16T13:23:02.723Z,37.46
2018-07-16T13:25:32.109Z,38.53
2018-07-16T13:28:01.729Z,39.00
2018-07-16T13:30:31.746Z,37.30
2018-07-16T13:33:02.107Z,36.30
2018-07-16T13:35:31.828Z,37.28
2018-07-16T13:38:01.502Z,39.02
2018-07-16T13:40:30.910Z,39.44
2018-07-16T13:43:00.268Z,40.14
2018-07-16T13:45:29.683Z,40.94
2018-07-16T13:47:59.069Z,40.15
2018-07-16T13:50:28.831Z,39.78
2018-07-16T13:52:58.233Z,40.01
2018-07-16T13:55:27.633Z,40.16
2018-07-16T13:57:56.973Z,42.40
2018-07-16T14:00:26.766Z,42.44
2018-07-16T14:02:56.147Z,45.50
2018-07-16T14:05:25.514Z,46.58
2018-07-16T14:07:54.875Z,46.18
2018-07-16T14:10:25.814Z,47.34
2018-07-16T14:12:55.972Z,46.34
2018-07-16T14:15:25.384Z,46.35
2018-07-16T14:17:54.741Z,46.92
2018-07-16T14:20:24.710Z,47.08
2018-07-16T14:22:54.057Z,48.27
2018-07-16T14:25:23.416Z,50.22
2018-07-16T14:27:52.797Z,50.73
2018-07-16T14:30:22.729Z,52.48
2018-07-16T14:32:52.892Z,53.09
2018-07-16T14:35:22.318Z,53.71
2018-07-16T14:37:51.843Z,55.09
2018-07-16T14:40:21.327Z,56.23
2018-07-16T14:42:51.236Z,56.17
2018-07-16T14:45:24.894Z,55.73
2018-07-16T14:47:54.420Z,55.38
2018-07-16T14:50:23.959Z,54.53
2018-07-16T14:52:53.552Z,51.72
2018-07-16T14:55:22.968Z,49.95
2018-07-16T14:57:52.352Z,52.46
2018-07-16T15:00:21.758Z,53.88
2018-07-16T15:02:51.112Z,54.36
2018-07-16T15:05:20.556Z,55.14
2018-07-16T15:07:49.959Z,55.09
2018-07-16T15:10:19.281Z,54.97
2018-07-16T15:12:48.636Z,58.07
2018-07-16T15:15:32.489Z,60.92
2018-07-16T15:18:02.512Z,62.25
2018-07-16T15:20:32.041Z,63.18
2018-07-16T15:23:01.477Z,62.45
2018-07-16T15:25:30.877Z,62.37
2018-07-16T15:28:00.674Z,62.86
2018-07-16T15:30:30.073Z,57.37
2018-07-16T15:32:59.447Z,54.05
2018-07-16T15:35:28.802Z,52.56
2018-07-16T15:37:58.199Z,52.16
2018-07-16T15:40:27.653Z,52.01
2018-07-16T15:42:57.009Z,53.48
2018-07-16T15:45:26.385Z,54.86
2018-07-16T15:47:55.789Z,55.56
2018-07-16T15:50:25.705Z,53.91
2018-07-16T15:52:55.192Z,52.12
2018-07-16T15:55:24.553Z,52.69
2018-07-16T15:57:54.245Z,53.16
2018-07-16T16:00:23.661Z,53.71
2018-07-16T16:02:53.027Z,53.64
2018-07-16T16:05:22.604Z,53.33
2018-07-16T16:07:51.944Z,53.39
2018-07-16T16:10:22.409Z,55.96
2018-07-16T16:12:52.135Z,56.17
2018-07-16T16:15:21.804Z,54.23
2018-07-16T16:17:51.176Z,55.33
2018-07-16T16:20:20.537Z,51.04
2018-07-16T16:22:50.237Z,47.44
2018-07-16T16:25:30.670Z,46.15
2018-07-16T16:28:00.054Z,45.36
2018-07-16T16:30:29.711Z,43.39
2018-07-16T16:32:59.314Z,41.85
2018-07-16T16:35:28.849Z,41.18
2018-07-16T16:37:58.351Z,41.62
2018-07-16T16:40:27.882Z,41.25
2018-07-16T16:42:57.279Z,41.58
2018-07-16T16:45:26.811Z,41.33
2018-07-16T16:47:56.432Z,40.38
2018-07-16T16:50:25.876Z,41.07
2018-07-16T16:52:55.510Z,41.53
2018-07-16T16:55:24.973Z,41.03
2018-07-16T16:57:54.337Z,41.54
2018-07-16T17:00:23.681Z,40.84
2018-07-16T17:02:53.070Z,41.39
2018-07-16T17:05:22.464Z,41.33
2018-07-16T17:07:51.954Z,41.91
2018-07-16T17:10:21.329Z,42.79
2018-07-16T17:12:50.672Z,44.39
2018-07-16T17:15:20.081Z,47.84
2018-07-16T17:17:49.457Z,52.01
2018-07-16T17:20:19.065Z,53.36
2018-07-16T17:22:49.360Z,54.40
2018-07-16T17:25:18.732Z,55.20
2018-07-16T17:27:48.712Z,54.42
2018-07-16T17:30:18.537Z,54.56
2018-07-16T17:32:48.513Z,54.93
2018-07-16T17:35:18.131Z,54.91
2018-07-16T17:37:47.517Z,53.06
2018-07-16T17:40:23.054Z,53.49
2018-07-16T17:42:52.477Z,53.80
2018-07-16T17:45:23.417Z,53.15
2018-07-16T17:47:52.853Z,52.78
2018-07-16T17:50:22.189Z,52.29
2018-07-16T17:52:51.548Z,51.59
2018-07-16T17:55:34.327Z,51.95
2018-07-16T17:58:05.341Z,52.62
2018-07-16T18:00:34.785Z,50.87
2018-07-16T18:03:04.200Z,52.51
2018-07-16T18:05:33.569Z,51.75
2018-07-16T18:08:02.987Z,52.42
2018-07-16T18:10:32.400Z,52.86
2018-07-16T18:13:01.760Z,52.22
2018-07-16T18:15:31.104Z,53.09
2018-07-16T18:18:00.497Z,54.00
2018-07-16T18:20:29.869Z,54.19
2018-07-16T18:22:59.236Z,54.57
2018-07-16T18:25:28.606Z,54.89
2018-07-16T18:27:57.976Z,55.53
2018-07-16T18:30:27.603Z,55.77
2018-07-16T18:32:57.008Z,56.06
2018-07-16T18:35:26.948Z,55.90
2018-07-16T18:37:56.503Z,56.82
2018-07-16T18:40:25.962Z,56.67
2018-07-16T18:42:55.417Z,56.88
2018-07-16T18:45:24.828Z,57.20
2018-07-16T18:47:54.589Z,57.21
2018-07-16T18:50:24.319Z,57.74
2018-07-16T18:52:53.693Z,58.01
2018-07-16T18:55:23.059Z,57.60
2018-07-16T18:57:52.623Z,58.02
2018-07-16T19:00:22.364Z,58.67
2018-07-16T19:02:51.944Z,59.36
2018-07-16T19:05:21.321Z,59.60
2018-07-16T19:07:51.457Z,60.24
2018-07-16T19:10:20.815Z,60.54
2018-07-16T19:12:50.260Z,60.51
2018-07-16T19:15:25.825Z,61.08
2018-07-16T19:17:56.218Z,61.07
2018-07-16T19:20:26.399Z,60.75
2018-07-16T19:22:55.900Z,60.75
2018-07-16T19:25:25.300Z,61.25
2018-07-16T19:27:54.639Z,60.98
2018-07-16T19:30:24.037Z,61.03
2018-07-16T19:32:53.432Z,61.14
2018-07-16T19:35:24.598Z,59.93
2018-07-16T19:37:54.592Z,60.65
2018-07-16T19:40:25.203Z,60.09
2018-07-16T19:42:54.561Z,60.16
2018-07-16T19:45:23.919Z,60.43
2018-07-16T19:47:53.283Z,60.69
2018-07-16T19:50:22.663Z,61.47
2018-07-16T19:52:52.051Z,61.56
2018-07-16T19:55:21.537Z,61.79
2018-07-16T19:57:51.013Z,61.11
2018-07-16T20:00:20.816Z,60.81
2018-07-16T20:02:50.538Z,60.22
2018-07-16T20:05:20.045Z,60.13
2018-07-16T20:07:49.404Z,60.24
2018-07-16T20:10:18.925Z,58.85
2018-07-16T20:12:48.285Z,58.61
2018-07-16T20:15:19.577Z,59.03
2018-07-16T20:17:49.122Z,59.52
2018-07-16T20:20:18.480Z,59.42
2018-07-16T20:22:48.056Z,59.37
2018-07-16T20:25:17.441Z,58.69
2018-07-16T20:27:47.141Z,59.50
2018-07-16T20:30:16.530Z,58.78
2018-07-16T20:32:45.964Z,59.79
2018-07-16T20:35:15.373Z,59.46
2018-07-16T20:37:44.751Z,59.83
2018-07-16T20:40:15.256Z,59.87
2018-07-16T20:42:44.621Z,59.48
2018-07-16T20:45:14.013Z,60.09
2018-07-16T20:47:43.381Z,60.12
2018-07-16T20:50:15.711Z,60.76
2018-07-16T20:52:45.154Z,61.17
2018-07-16T20:55:15.149Z,60.86
2018-07-16T20:57:44.532Z,61.84
2018-07-16T21:00:13.905Z,62.10
2018-07-16T21:02:43.250Z,62.24
2018-07-16T21:05:12.705Z,62.70
2018-07-16T21:07:42.079Z,61.75
2018-07-16T21:10:12.057Z,61.27
2018-07-16T21:12:41.533Z,60.71
2018-07-16T21:15:13.880Z,60.67
2018-07-16T21:17:43.453Z,60.01
2018-07-16T21:20:13.303Z,59.61
2018-07-16T21:22:42.691Z,59.56
2018-07-16T21:25:17.289Z,59.62
2018-07-16T21:27:47.188Z,59.72
2018-07-16T21:30:17.176Z,59.62
2018-07-16T21:32:46.708Z,59.52
2018-07-16T21:35:16.111Z,59.82
2018-07-16T21:37:45.517Z,60.04
2018-07-16T21:40:15.299Z,59.76
2018-07-16T21:42:44.835Z,59.92
2018-07-16T21:45:14.332Z,59.66
2018-07-16T21:47:43.745Z,59.89
2018-07-16T21:50:14.404Z,60.02
2018-07-16T21:52:43.947Z,60.02
2018-07-16T21:55:13.283Z,60.43
2018-07-16T21:57:42.668Z,61.27
2018-07-16T22:00:24.108Z,62.03
2018-07-16T22:02:53.480Z,62.50
2018-07-16T22:05:24.205Z,62.04
2018-07-16T22:07:53.584Z,62.03
2018-07-16T22:10:23.621Z,61.73
2018-07-16T22:12:53.030Z,61.78
2018-07-16T22:15:28.339Z,61.54
2018-07-16T22:17:58.568Z,61.49
2018-07-16T22:20:28.494Z,61.37
2018-07-16T22:22:58.868Z,61.92
2018-07-16T22:25:28.452Z,62.11
2018-07-16T22:27:57.848Z,62.56
2018-07-16T22:30:28.038Z,64.00
2018-07-16T22:32:57.503Z,64.37
2018-07-16T22:35:26.881Z,65.15
2018-07-16T22:37:56.224Z,66.39
2018-07-16T22:40:25.873Z,66.66
2018-07-16T22:42:55.309Z,66.97
2018-07-16T22:45:24.643Z,67.29
2018-07-16T22:47:54.052Z,67.67
2018-07-16T22:50:23.676Z,66.41
2018-07-16T22:52:53.041Z,65.64
2018-07-16T22:55:22.383Z,64.80
2018-07-16T22:57:51.739Z,65.64
2018-07-16T23:00:21.097Z,65.51
2018-07-16T23:02:50.597Z,64.89
2018-07-16T23:05:19.997Z,64.43
2018-07-16T23:07:49.349Z,63.88
2018-07-16T23:10:18.691Z,62.92
2018-07-16T23:12:48.874Z,62.74
2018-07-16T23:15:18.253Z,62.75
2018-07-16T23:17:47.613Z,62.16
2018-07-16T23:20:16.957Z,62.29
2018-07-16T23:22:50.828Z,62.18
2018-07-16T23:25:20.742Z,62.30
2018-07-16T23:27:50.472Z,62.42
2018-07-16T23:30:19.992Z,62.67
2018-07-16T23:32:49.365Z,62.18
2018-07-16T23:35:18.767Z,62.20
2018-07-16T23:37:48.194Z,62.46
2018-07-16T23:40:17.561Z,62.55
2018-07-16T23:42:46.895Z,62.07
2018-07-16T23:45:16.285Z,62.38
2018-07-16T23:47:45.636Z,61.92
2018-07-16T23:50:15.218Z,61.88
2018-07-16T23:52:44.738Z,61.72
2018-07-16T23:55:14.084Z,62.01
2018-07-16T23:57:43.433Z,61.93
